Eagle River, WI

8:38 AM CDT on September 22, 2014 (GMT -0500)
Eagle River Union | Change Station
CLOSE
Current Station
Airport
Location: Eagle River,
Elevation: 1640 ft
Nearby Weather Stations

Elev 1640 ft 45.93 °N, 89.27 °W | Updated 23 minutes ago

Mostly Cloudy
Mostly Cloudy
44 °F
Feels Like 41 °F
N
5
Wind Variable Wind from WSW

Today
High -- | Low -- °F
--% Chance of Precip.
Yesterday
High -- | Low -- °F
Precip. -- in
6:43 AM 6:54 PM
Waning Crescent, 3% visible
Pressure 30.20 in
Visibility 10.0 miles
Clouds Mostly Cloudy 4200 ft
Windchill 41 °F
Dew Point 44 °F
Humidity 100%
Rainfall 0.00 in
Snow Depth Not available.
UV 0 out of 12
Pollen 3.20 out of 12
Air Quality Not available.
Flu Activity Not available.
METAR KEGV 221315Z AUTO 24004KT 10SM BKN042 07/07 A3020 RMK AO2 T00660066

More Conditions Fewer Conditions

Pressure 30.20 in
Visibility 10.0 miles
Clouds Mostly Cloudy 4200 ft
Windchill 41 °F
Dew Point 44 °F
Humidity 100%
Rainfall 0.00 in
Snow Depth Not available.
UV 0 out of 12
Pollen 3.20 out of 12
Air Quality Not available.
Flu Activity Not available.
METAR KEGV 221315Z AUTO 24004KT 10SM BKN042 07/07 A3020 RMK AO2 T00660066

More Conditions Fewer Conditions

10-Day Weather Forecast

Almanac

Astronomy

Sep. 22, 2014 Rise Set
Actual Time 6:43 AM CDT 6:54 PM CDT
Civil Twilight 6:14 AM CDT 7:24 PM CDT
Nautical Twilight 5:39 AM CDT 7:59 PM CDT
Astronomical Twilight 5:02 AM CDT 8:35 PM CDT
Moon 5:09 AM CDT 6:03 PM CDT
Length of Visible Light 13h 10m
Length of Day
12h 10m
Tomorrow will be 3m 13s shorter.
Waning Crescent, 3% of the Moon is Illuminated
Today
Waning Crescent
Sep 24
New
Oct 1
First Quarter
Oct 8
Full
Oct 15
Last Quarter

Today's Extremes

State Highs State Lows

Community

WunderPhotos

Upload Photos

1,755,429 photos uploaded!

WunderBlogs® & News

Nearby

Snow Depth

Station Depth Elevation
No new snow has been reported.

Earthquake Activity

City Distance Mag. Time & Date
No recent earthquake activity has been reported nearby.
Minimum magnitude displayed is 2.5.

Coastal Water Temperatures

Place Temperature
No Stations Reporting

Nearby Weather Stations